UACC/TSE METAR and TAF weather

Enter ICAO airport designator
Station Type Date Time Source
UACC METAR 2023/02/05 23:30 UTC NOAA

UACC 052330Z 08003MPS 9999 SCT007 BKN046 M15/M17 Q1018 NOSIG RMK QFE732/0976


Station Type Date Time Source
UACC Decoded METAR 2023/02/05 23:30 UTC NOAA

Astana, Kazakhstan (UACC) 51-12N 071-27E
Feb 05, 2023 - 06:30 PM EST / 2023.02.05 2330 UTC
Wind: from the E (080 degrees) at 7 MPH (6 KT):0
Visibility: greater than 7 mile(s):0
Sky conditions: mostly cloudy
Temperature: 5 F (-15 C)
Windchill: -7 F (-22 C):2
Dew Point: 1 F (-17 C)
Relative Humidity: 84%
Pressure (altimeter): 30.06 in. Hg (1018 hPa)
ob: UACC 052330Z 08003MPS 9999 SCT007 BKN046 M15/M17 Q1018 NOSIG RMK QFE732/0976
cycle: 23

Station Type Date Time Source
UACC TAF 2023/02/05 18:21 UTC NOAA

TAF UACC 051705Z 0518/0618 08003MPS 3100 -SN SCT011 BKN040 TXM06/0609Z TNM13/0601Z
TEMPO 0522/0605 10004MPS 1000 SN BR FEW005 BKN011
BECMG 0605/0607 10004MPS 9999 NSW
TEMPO 0605/0613 VRB02MPS 3100 -SN FEW005 BKN011
FM061300 16003MPS 5000 -SN BKN011 BKN030
TEMPO 0613/0618 23004MPS 3100 -SHSN BKN015CB

Example: see airport list